createdAt,value
2019-06-01T00:01:51.358Z,47.43
2019-06-01T00:04:20.058Z,47.93
2019-06-01T00:06:49.028Z,46.30
2019-06-01T00:09:17.773Z,48.90
2019-06-01T00:11:47.525Z,51.07
2019-06-01T00:14:16.421Z,46.30
2019-06-01T00:16:46.060Z,45.33
2019-06-01T00:19:15.236Z,46.77
2019-06-01T00:21:45.439Z,47.53
2019-06-01T00:24:14.455Z,45.63
2019-06-01T00:26:43.714Z,55.03
2019-06-01T00:29:12.544Z,54.60
2019-06-01T00:31:42.958Z,51.97
2019-06-01T00:34:12.071Z,57.07
2019-06-01T00:36:41.511Z,53.87
2019-06-01T00:39:10.674Z,60.00
2019-06-01T00:41:39.381Z,57.40
2019-06-01T00:44:08.351Z,52.07
2019-06-01T00:46:37.099Z,52.37
2019-06-01T00:49:06.237Z,47.17
2019-06-01T00:51:35.252Z,46.67
2019-06-01T00:54:04.403Z,45.20
2019-06-01T00:56:33.234Z,48.60
2019-06-01T00:59:02.208Z,40.27
2019-06-01T01:01:31.204Z,48.93
2019-06-01T01:03:59.889Z,45.70
2019-06-01T01:06:28.948Z,49.10
2019-06-01T01:08:57.550Z,47.33
2019-06-01T01:11:26.459Z,44.20
2019-06-01T01:13:55.458Z,42.73
2019-06-01T01:16:24.150Z,50.63
2019-06-01T01:18:53.832Z,42.60
2019-06-01T01:21:22.640Z,47.60
2019-06-01T01:23:52.950Z,45.03
2019-06-01T01:26:22.167Z,42.60
2019-06-01T01:28:51.053Z,36.73
2019-06-01T01:31:20.052Z,43.17
2019-06-01T01:33:49.361Z,41.80
2019-06-01T01:36:18.600Z,41.30
2019-06-01T01:38:48.251Z,43.00
2019-06-01T01:41:17.265Z,39.03
2019-06-01T01:43:45.948Z,34.77
2019-06-01T01:46:14.965Z,37.17
2019-06-01T01:48:43.614Z,33.40
2019-06-01T01:51:12.289Z,35.93
2019-06-01T01:53:40.925Z,36.10
2019-06-01T01:56:10.504Z,34.87
2019-06-01T01:58:39.142Z,37.27
2019-06-01T02:01:21.293Z,38.47
2019-06-01T02:03:38.519Z,38.00
2019-06-01T02:06:07.602Z,41.53
2019-06-01T02:08:36.601Z,41.13
2019-06-01T02:11:05.597Z,37.07
2019-06-01T02:13:34.784Z,40.03
2019-06-01T02:16:03.678Z,39.43
2019-06-01T02:18:32.336Z,37.40
2019-06-01T02:21:02.698Z,31.87
2019-06-01T02:23:31.589Z,36.80
2019-06-01T02:26:01.166Z,35.53
2019-06-01T02:28:30.803Z,35.53
2019-06-01T02:31:00.191Z,39.50
2019-06-01T02:33:29.609Z,32.33
2019-06-01T02:36:00.660Z,33.67
2019-06-01T02:38:29.438Z,32.27
2019-06-01T02:40:58.965Z,30.20
2019-06-01T02:43:28.360Z,32.17
2019-06-01T02:45:58.119Z,32.10
2019-06-01T02:48:27.154Z,32.87
2019-06-01T02:50:57.439Z,30.93
2019-06-01T02:53:26.670Z,31.90
2019-06-01T02:55:55.818Z,32.20
2019-06-01T02:58:24.540Z,30.60
2019-06-01T03:01:24.698Z,30.60
2019-06-01T03:03:57.421Z,31.50
2019-06-01T03:06:28.456Z,31.03
2019-06-01T03:08:59.739Z,30.07
2019-06-01T03:11:33.268Z,25.77
2019-06-01T03:14:02.549Z,28.20
2019-06-01T03:16:31.549Z,28.77
2019-06-01T03:19:01.974Z,30.93
2019-06-01T03:21:33.027Z,28.33
2019-06-01T03:24:06.163Z,27.70
2019-06-01T03:26:41.226Z,28.37
2019-06-01T03:29:13.921Z,24.93
2019-06-01T03:31:42.542Z,23.43
2019-06-01T03:34:12.147Z,22.50
2019-06-01T03:36:42.043Z,24.03
2019-06-01T03:39:12.881Z,24.73
2019-06-01T03:41:42.837Z,24.10
2019-06-01T03:44:12.972Z,24.50
2019-06-01T03:46:42.215Z,20.83
2019-06-01T03:49:11.955Z,23.03
2019-06-01T03:51:41.219Z,20.33
2019-06-01T03:54:10.174Z,22.53
2019-06-01T03:56:39.799Z,19.73
2019-06-01T03:59:09.330Z,19.40
2019-06-01T04:01:38.319Z,17.40
2019-06-01T04:04:07.319Z,17.27
2019-06-01T04:06:36.613Z,16.07
2019-06-01T04:09:07.742Z,20.07
2019-06-01T04:11:36.710Z,17.77
2019-06-01T04:14:06.180Z,15.23
2019-06-01T04:16:35.455Z,17.93
2019-06-01T04:19:04.349Z,17.57
2019-06-01T04:21:33.335Z,16.53
2019-06-01T04:24:02.554Z,17.03
2019-06-01T04:26:33.089Z,15.67
2019-06-01T04:29:02.364Z,14.00
2019-06-01T04:31:31.976Z,15.10
2019-06-01T04:34:00.615Z,16.73
2019-06-01T04:36:29.688Z,13.23
2019-06-01T04:38:58.490Z,16.20
2019-06-01T04:41:27.435Z,13.90
2019-06-01T04:43:56.082Z,14.23
2019-06-01T04:46:25.168Z,14.50
2019-06-01T04:48:54.115Z,11.60
2019-06-01T04:51:22.756Z,11.70
2019-06-01T04:53:51.697Z,15.17
2019-06-01T04:56:21.302Z,12.83
2019-06-01T04:58:49.909Z,10.53
2019-06-01T05:01:18.878Z,14.77
2019-06-01T05:03:47.872Z,14.80
2019-06-01T05:06:17.272Z,13.23
2019-06-01T05:08:46.140Z,11.10
2019-06-01T05:11:15.705Z,11.33
2019-06-01T05:13:44.768Z,12.37
2019-06-01T05:16:14.848Z,12.97
2019-06-01T05:18:43.982Z,11.53
2019-06-01T05:21:13.098Z,9.83
2019-06-01T05:23:42.071Z,9.37
2019-06-01T05:26:11.089Z,10.07
2019-06-01T05:28:40.069Z,10.60
2019-06-01T05:31:13.243Z,7.37
2019-06-01T05:33:39.347Z,7.17
2019-06-01T05:36:08.406Z,10.27
2019-06-01T05:38:37.777Z,8.00
2019-06-01T05:41:06.774Z,9.23
2019-06-01T05:43:35.969Z,8.60
2019-06-01T05:46:04.962Z,10.33
2019-06-01T05:48:34.161Z,7.53
2019-06-01T05:51:03.359Z,7.90
2019-06-01T05:53:32.359Z,8.97
2019-06-01T05:56:00.985Z,9.27
2019-06-01T05:58:30.218Z,8.07
2019-06-01T06:00:58.878Z,9.73
2019-06-01T06:03:39.870Z,8.90
2019-06-01T06:05:58.545Z,7.13
2019-06-01T06:08:27.442Z,9.00
2019-06-01T06:10:56.438Z,10.53
2019-06-01T06:13:25.633Z,10.10
2019-06-01T06:15:54.634Z,9.13
2019-06-01T06:18:23.306Z,11.67
2019-06-01T06:20:52.202Z,9.87
2019-06-01T06:23:22.626Z,12.13
2019-06-01T06:25:51.657Z,12.13
2019-06-01T06:28:20.842Z,11.17
2019-06-01T06:30:49.460Z,11.10
2019-06-01T06:33:19.361Z,9.40
2019-06-01T06:35:48.317Z,8.90
2019-06-01T06:38:17.880Z,12.83
2019-06-01T06:40:46.634Z,13.00
2019-06-01T06:43:20.085Z,8.97
2019-06-01T06:45:46.350Z,8.87
2019-06-01T06:48:15.034Z,11.00
2019-06-01T06:50:44.335Z,8.80
2019-06-01T06:53:25.380Z,10.07
2019-06-01T06:55:44.489Z,13.03
2019-06-01T06:58:13.534Z,8.77
2019-06-01T07:00:42.476Z,9.00
2019-06-01T07:03:11.106Z,10.37
2019-06-01T07:05:39.719Z,10.33
2019-06-01T07:08:08.383Z,13.73
2019-06-01T07:10:37.403Z,9.70
2019-06-01T07:13:06.100Z,10.47
2019-06-01T07:15:34.773Z,11.97
2019-06-01T07:18:03.425Z,11.10
2019-06-01T07:20:32.407Z,11.20
2019-06-01T07:23:01.378Z,13.10
2019-06-01T07:25:30.652Z,12.03
2019-06-01T07:27:59.952Z,12.20
2019-06-01T07:30:28.679Z,14.70
2019-06-01T07:32:57.742Z,13.33
2019-06-01T07:35:26.737Z,12.07
2019-06-01T07:37:55.400Z,11.13
2019-06-01T07:40:24.820Z,15.33
2019-06-01T07:42:54.247Z,14.53
2019-06-01T07:45:23.013Z,12.37
2019-06-01T07:47:51.585Z,14.50
2019-06-01T07:50:20.457Z,10.57
2019-06-01T07:52:49.390Z,10.53
2019-06-01T07:55:18.372Z,10.80
2019-06-01T07:57:47.267Z,9.50
2019-06-01T08:00:16.444Z,9.47
2019-06-01T08:02:45.096Z,11.10
2019-06-01T08:05:13.937Z,13.10
2019-06-01T08:07:42.830Z,11.23
2019-06-01T08:10:11.601Z,10.93
2019-06-01T08:12:40.821Z,11.17
2019-06-01T08:15:10.015Z,9.30
2019-06-01T08:17:39.319Z,12.97
2019-06-01T08:20:08.467Z,10.30
2019-06-01T08:22:37.216Z,10.67
2019-06-01T08:25:06.416Z,10.70
2019-06-01T08:27:35.397Z,11.53
2019-06-01T08:30:04.651Z,10.40
2019-06-01T08:32:33.892Z,8.37
2019-06-01T08:35:08.406Z,8.97
2019-06-01T08:37:33.660Z,11.87
2019-06-01T08:40:02.844Z,10.97
2019-06-01T08:42:31.821Z,12.20
2019-06-01T08:45:00.455Z,16.67
2019-06-01T08:47:29.999Z,11.03
2019-06-01T08:49:58.936Z,11.63
2019-06-01T08:52:28.101Z,11.37
2019-06-01T08:54:57.096Z,12.30
2019-06-01T08:57:26.085Z,12.97
2019-06-01T08:59:55.785Z,12.03
2019-06-01T09:02:24.792Z,11.47
2019-06-01T09:04:53.409Z,12.13
2019-06-01T09:07:22.373Z,12.97
2019-06-01T09:09:51.008Z,13.43
2019-06-01T09:12:20.056Z,12.77
2019-06-01T09:14:48.720Z,12.53
2019-06-01T09:17:18.845Z,13.60
2019-06-01T09:19:47.868Z,11.97
2019-06-01T09:22:16.887Z,15.53
2019-06-01T09:24:46.154Z,12.03
2019-06-01T09:27:15.142Z,11.73
2019-06-01T09:29:44.754Z,12.53
2019-06-01T09:32:13.954Z,12.60
2019-06-01T09:34:42.948Z,12.17
2019-06-01T09:37:11.936Z,13.80
2019-06-01T09:39:41.228Z,14.03
2019-06-01T09:42:09.851Z,12.87
2019-06-01T09:44:38.826Z,12.87
2019-06-01T09:47:07.476Z,13.70
2019-06-01T09:49:36.087Z,13.80
2019-06-01T09:52:04.890Z,13.00
2019-06-01T09:54:35.110Z,13.17
2019-06-01T09:57:04.793Z,15.37
2019-06-01T09:59:34.011Z,14.53
2019-06-01T10:02:03.226Z,14.20
2019-06-01T10:04:32.819Z,13.40
2019-06-01T10:07:01.465Z,13.07
2019-06-01T10:09:31.525Z,12.10
2019-06-01T10:12:00.530Z,13.33
2019-06-01T10:14:30.090Z,13.67
2019-06-01T10:16:59.311Z,13.57
2019-06-01T10:19:28.212Z,14.47
2019-06-01T10:21:56.892Z,11.40
2019-06-01T10:24:25.549Z,12.93
2019-06-01T10:26:54.783Z,12.50
2019-06-01T10:29:23.710Z,15.13
2019-06-01T10:31:52.662Z,11.30
2019-06-01T10:34:21.792Z,13.43
2019-06-01T10:36:50.516Z,11.27
2019-06-01T10:39:19.870Z,11.77
2019-06-01T10:41:48.659Z,10.17
2019-06-01T10:44:17.697Z,10.40
2019-06-01T10:46:46.628Z,10.70
2019-06-01T10:49:15.820Z,9.40
2019-06-01T10:51:44.711Z,10.07
2019-06-01T10:54:13.729Z,9.87
2019-06-01T10:56:42.609Z,10.53
2019-06-01T10:59:11.562Z,10.27
2019-06-01T11:01:40.951Z,10.37
2019-06-01T11:04:09.757Z,8.77
2019-06-01T11:06:44.886Z,9.00
2019-06-01T11:09:09.495Z,11.67
2019-06-01T11:11:39.098Z,9.23
2019-06-01T11:14:07.916Z,8.83
2019-06-01T11:16:37.300Z,9.17
2019-06-01T11:19:06.114Z,8.23
2019-06-01T11:21:35.521Z,9.73
2019-06-01T11:24:04.484Z,7.27
2019-06-01T11:26:33.401Z,8.60
2019-06-01T11:29:02.386Z,7.93
2019-06-01T11:31:31.378Z,8.40
2019-06-01T11:34:00.278Z,7.63
2019-06-01T11:36:29.245Z,9.00
2019-06-01T11:38:58.154Z,7.83
2019-06-01T11:41:27.049Z,9.87
2019-06-01T11:43:55.743Z,8.17
2019-06-01T11:46:25.034Z,8.10
2019-06-01T11:48:53.926Z,7.73
2019-06-01T11:51:22.615Z,8.93
2019-06-01T11:53:51.668Z,9.13
2019-06-01T11:56:20.266Z,7.90
2019-06-01T11:58:49.203Z,6.40
2019-06-01T12:01:18.488Z,7.67
2019-06-01T12:03:47.116Z,7.23
2019-06-01T12:06:15.744Z,6.77
2019-06-01T12:08:46.214Z,11.50
2019-06-01T12:11:15.484Z,6.47
2019-06-01T12:13:44.598Z,6.93
2019-06-01T12:16:13.460Z,6.43
2019-06-01T12:18:42.626Z,9.70
2019-06-01T12:21:11.484Z,7.30
2019-06-01T12:23:41.443Z,7.50
2019-06-01T12:26:10.936Z,6.60
2019-06-01T12:28:41.478Z,7.50
2019-06-01T12:31:11.043Z,6.07
2019-06-01T12:33:39.927Z,6.63
2019-06-01T12:36:09.247Z,5.80
2019-06-01T12:38:56.064Z,5.97
2019-06-01T12:41:27.541Z,6.97
2019-06-01T12:44:17.384Z,6.20
2019-06-01T12:46:46.962Z,6.00
2019-06-01T12:49:16.001Z,5.40
2019-06-01T12:51:44.836Z,11.33
2019-06-01T12:54:13.691Z,7.00
2019-06-01T12:56:42.880Z,7.90
2019-06-01T12:59:11.720Z,8.97
2019-06-01T13:01:41.100Z,7.53
2019-06-01T13:04:10.056Z,7.80
2019-06-01T13:06:38.778Z,9.70
2019-06-01T13:09:08.904Z,8.00
2019-06-01T13:11:37.669Z,7.70
2019-06-01T13:14:07.989Z,7.43
2019-06-01T13:16:36.797Z,7.90
2019-06-01T13:19:06.077Z,7.70
2019-06-01T13:21:34.905Z,7.07
2019-06-01T13:24:04.217Z,7.83
2019-06-01T13:26:33.236Z,7.20
2019-06-01T13:29:02.329Z,10.87
2019-06-01T13:31:31.427Z,7.63
2019-06-01T13:34:00.574Z,7.43
2019-06-01T13:36:29.623Z,7.60
2019-06-01T13:38:59.143Z,6.80
2019-06-01T13:41:27.848Z,6.93
2019-06-01T13:43:56.660Z,7.07
2019-06-01T13:46:25.732Z,6.97
2019-06-01T13:48:54.924Z,6.77
2019-06-01T13:51:23.656Z,6.70
2019-06-01T13:53:52.915Z,7.00
2019-06-01T13:56:21.967Z,6.30
2019-06-01T13:58:50.765Z,6.67
2019-06-01T14:01:19.444Z,6.20
2019-06-01T14:03:49.382Z,6.50
2019-06-01T14:06:18.733Z,5.57
2019-06-01T14:08:47.453Z,5.53
2019-06-01T14:11:16.583Z,4.97
2019-06-01T14:13:45.564Z,3.80
2019-06-01T14:16:14.677Z,4.43
2019-06-01T14:18:43.371Z,3.97
2019-06-01T14:21:12.420Z,3.37
2019-06-01T14:23:41.443Z,3.50
2019-06-01T14:26:10.405Z,3.70
2019-06-01T14:28:39.929Z,4.83
2019-06-01T14:31:08.705Z,3.77
2019-06-01T14:33:37.607Z,2.70
2019-06-01T14:36:06.330Z,3.60
2019-06-01T14:38:46.690Z,2.63
2019-06-01T14:41:06.037Z,3.93
2019-06-01T14:43:35.238Z,3.97
2019-06-01T14:46:04.272Z,7.23
2019-06-01T14:48:33.235Z,3.43
2019-06-01T14:51:02.198Z,3.07
2019-06-01T14:53:30.954Z,4.53
2019-06-01T14:55:59.991Z,4.73
2019-06-01T14:58:28.788Z,4.40
2019-06-01T15:00:58.587Z,9.37
2019-06-01T15:03:27.614Z,6.00
2019-06-01T15:05:56.608Z,8.57
2019-06-01T15:08:27.008Z,5.33
2019-06-01T15:10:57.044Z,5.10
2019-06-01T15:13:25.981Z,5.80
2019-06-01T15:15:55.618Z,6.03
2019-06-01T15:18:24.535Z,8.07
2019-06-01T15:20:53.794Z,6.03
2019-06-01T15:23:22.782Z,6.10
2019-06-01T15:25:52.362Z,6.03
2019-06-01T15:28:21.550Z,6.53
2019-06-01T15:30:50.893Z,5.63
2019-06-01T15:33:21.368Z,5.73
2019-06-01T15:35:52.118Z,5.57
2019-06-01T15:38:21.019Z,5.93
2019-06-01T15:40:49.743Z,7.47
2019-06-01T15:43:18.767Z,5.37
2019-06-01T15:45:47.848Z,5.37
2019-06-01T15:48:16.565Z,5.30
2019-06-01T15:50:45.561Z,5.60
2019-06-01T15:53:14.931Z,5.83
2019-06-01T15:55:44.305Z,11.23
2019-06-01T15:58:13.734Z,7.30
2019-06-01T16:00:42.484Z,7.17
2019-06-01T16:03:11.133Z,6.30
2019-06-01T16:05:39.900Z,6.87
2019-06-01T16:08:08.995Z,7.93
2019-06-01T16:10:37.826Z,8.70
2019-06-01T16:13:06.516Z,6.90
2019-06-01T16:15:35.532Z,8.60
2019-06-01T16:18:04.438Z,7.40
2019-06-01T16:20:33.572Z,8.40
2019-06-01T16:23:02.606Z,6.77
2019-06-01T16:25:34.055Z,6.70
2019-06-01T16:28:03.906Z,8.27
2019-06-01T16:30:37.429Z,8.20
2019-06-01T16:33:06.226Z,8.33
2019-06-01T16:35:35.192Z,8.03
2019-06-01T16:38:05.729Z,8.70
2019-06-01T16:40:35.258Z,8.37
2019-06-01T16:43:05.589Z,8.00
2019-06-01T16:45:34.865Z,9.13
2019-06-01T16:48:03.843Z,6.17
2019-06-01T16:50:32.560Z,7.20
2019-06-01T16:53:02.123Z,8.03
2019-06-01T16:55:31.636Z,7.73
2019-06-01T16:58:01.211Z,8.30
2019-06-01T17:00:30.455Z,6.03
2019-06-01T17:02:59.159Z,8.90
2019-06-01T17:05:27.809Z,9.53
2019-06-01T17:07:56.828Z,7.37
2019-06-01T17:10:26.678Z,13.13
2019-06-01T17:12:56.828Z,9.37
2019-06-01T17:15:26.472Z,13.80
2019-06-01T17:17:56.881Z,7.80
2019-06-01T17:20:51.508Z,7.13
2019-06-01T17:23:26.758Z,9.67
2019-06-01T17:25:50.620Z,7.40
2019-06-01T17:28:19.727Z,5.60
2019-06-01T17:30:48.988Z,8.27
2019-06-01T17:33:18.926Z,6.20
2019-06-01T17:35:47.923Z,5.47
2019-06-01T17:38:16.576Z,8.73
2019-06-01T17:40:45.902Z,10.80
2019-06-01T17:43:15.111Z,7.00
2019-06-01T17:45:43.921Z,6.87
2019-06-01T17:48:25.213Z,9.07
2019-06-01T17:50:43.153Z,8.93
2019-06-01T17:53:13.021Z,10.67
2019-06-01T17:55:42.632Z,6.03
2019-06-01T17:58:12.512Z,5.80
2019-06-01T18:00:42.095Z,5.20
2019-06-01T18:03:12.047Z,8.77
2019-06-01T18:05:41.232Z,7.07
2019-06-01T18:08:10.435Z,6.07
2019-06-01T18:10:52.398Z,9.33
2019-06-01T18:13:10.576Z,6.47
2019-06-01T18:15:39.793Z,4.87
2019-06-01T18:18:10.360Z,6.73
2019-06-01T18:20:39.319Z,7.93
2019-06-01T18:23:10.124Z,4.90
2019-06-01T18:25:38.891Z,9.47
2019-06-01T18:28:14.651Z,6.50
2019-06-01T18:30:38.610Z,5.83
2019-06-01T18:33:07.325Z,8.50
2019-06-01T18:35:36.851Z,7.97
2019-06-01T18:38:05.973Z,5.73
2019-06-01T18:40:34.967Z,6.77
2019-06-01T18:43:07.842Z,5.13
2019-06-01T18:45:37.199Z,6.03
2019-06-01T18:48:06.239Z,7.57
2019-06-01T18:50:35.863Z,6.17
2019-06-01T18:53:06.033Z,5.77
2019-06-01T18:55:35.884Z,6.40
2019-06-01T18:58:06.393Z,5.03
2019-06-01T19:00:39.342Z,7.37
2019-06-01T19:03:07.235Z,5.10
2019-06-01T19:05:36.210Z,3.20
2019-06-01T19:08:05.152Z,4.90
2019-06-01T19:10:34.217Z,3.87
2019-06-01T19:13:02.881Z,3.73
2019-06-01T19:15:31.828Z,4.80
2019-06-01T19:18:00.811Z,4.27
2019-06-01T19:20:33.184Z,4.10
2019-06-01T19:23:00.643Z,3.60
2019-06-01T19:25:29.328Z,4.47
2019-06-01T19:27:58.009Z,5.50
2019-06-01T19:30:37.916Z,4.33
2019-06-01T19:33:11.015Z,3.37
2019-06-01T19:35:38.943Z,4.13
2019-06-01T19:38:08.947Z,5.87
2019-06-01T19:40:39.397Z,4.70
2019-06-01T19:43:09.440Z,3.17
2019-06-01T19:45:38.206Z,6.27
2019-06-01T19:48:08.232Z,3.03
2019-06-01T19:50:37.105Z,4.60
2019-06-01T19:53:06.099Z,5.70
2019-06-01T19:55:35.395Z,6.27
2019-06-01T19:58:04.354Z,5.00
2019-06-01T20:00:33.567Z,4.10
2019-06-01T20:03:02.845Z,4.53
2019-06-01T20:05:32.282Z,4.90
2019-06-01T20:08:01.310Z,6.00
2019-06-01T20:10:30.491Z,5.27
2019-06-01T20:12:59.552Z,4.83
2019-06-01T20:15:29.410Z,5.30
2019-06-01T20:17:58.927Z,7.90
2019-06-01T20:20:27.751Z,4.20
2019-06-01T20:22:57.213Z,5.10
2019-06-01T20:25:26.206Z,5.57
2019-06-01T20:27:54.998Z,5.83
2019-06-01T20:30:24.293Z,4.77
2019-06-01T20:32:53.017Z,4.90
2019-06-01T20:35:22.196Z,3.57
2019-06-01T20:37:51.099Z,4.17
2019-06-01T20:40:20.465Z,3.83
2019-06-01T20:42:49.228Z,5.03
2019-06-01T20:45:18.783Z,5.87
2019-06-01T20:47:47.646Z,4.43
2019-06-01T20:50:18.683Z,6.63
2019-06-01T20:52:47.729Z,5.67
2019-06-01T20:55:19.134Z,4.43
2019-06-01T20:57:48.089Z,6.73
2019-06-01T21:00:17.777Z,7.60
2019-06-01T21:02:46.794Z,6.83
2019-06-01T21:05:15.863Z,5.47
2019-06-01T21:07:44.930Z,6.07
2019-06-01T21:10:14.423Z,9.07
2019-06-01T21:12:45.649Z,6.60
2019-06-01T21:15:15.084Z,7.27
2019-06-01T21:17:44.577Z,8.33
2019-06-01T21:20:18.780Z,7.80
2019-06-01T21:22:44.306Z,8.97
2019-06-01T21:25:14.743Z,4.47
2019-06-01T21:27:44.233Z,9.40
2019-06-01T21:30:14.738Z,9.70
2019-06-01T21:32:44.178Z,8.40
2019-06-01T21:35:13.166Z,5.33
2019-06-01T21:37:42.787Z,9.70
2019-06-01T21:40:11.687Z,9.90
2019-06-01T21:42:40.851Z,7.33
2019-06-01T21:45:10.885Z,6.63
2019-06-01T21:47:40.392Z,11.80
2019-06-01T21:50:10.000Z,11.17
2019-06-01T21:52:39.142Z,6.33
2019-06-01T21:55:08.675Z,9.37
2019-06-01T21:57:37.680Z,4.70
2019-06-01T22:00:08.384Z,8.57
2019-06-01T22:02:37.271Z,11.67
2019-06-01T22:05:06.574Z,10.23
2019-06-01T22:07:35.821Z,7.50
2019-06-01T22:10:05.171Z,11.23
2019-06-01T22:12:34.129Z,6.97
2019-06-01T22:15:03.030Z,8.13
2019-06-01T22:17:32.015Z,11.07
2019-06-01T22:20:00.649Z,9.67
2019-06-01T22:22:29.304Z,9.93
2019-06-01T22:24:58.605Z,10.20
2019-06-01T22:27:28.515Z,11.37
2019-06-01T22:29:57.484Z,7.90
2019-06-01T22:32:29.533Z,15.63
2019-06-01T22:34:56.821Z,11.60
2019-06-01T22:37:25.867Z,12.00
2019-06-01T22:39:54.447Z,9.73
2019-06-01T22:42:24.297Z,9.57
2019-06-01T22:44:53.010Z,16.10
2019-06-01T22:47:22.475Z,13.90
2019-06-01T22:49:51.291Z,11.93
2019-06-01T22:52:20.980Z,14.70
2019-06-01T22:54:49.807Z,10.80
2019-06-01T22:57:18.443Z,12.67
2019-06-01T22:59:47.356Z,12.80
2019-06-01T23:02:16.248Z,13.40
2019-06-01T23:04:45.154Z,11.93
2019-06-01T23:07:13.775Z,11.33
2019-06-01T23:09:42.394Z,9.40
2019-06-01T23:12:11.112Z,14.47
2019-06-01T23:14:40.708Z,18.33
2019-06-01T23:17:10.003Z,9.13
2019-06-01T23:19:39.099Z,9.70
2019-06-01T23:22:08.178Z,11.47
2019-06-01T23:24:36.789Z,45.17
2019-06-01T23:27:05.581Z,21.63
2019-06-01T23:29:34.977Z,11.33
2019-06-01T23:32:03.880Z,15.50
2019-06-01T23:34:32.832Z,12.20
2019-06-01T23:37:01.593Z,13.00
2019-06-01T23:39:30.847Z,11.67
2019-06-01T23:41:59.947Z,8.97
2019-06-01T23:44:31.911Z,9.40
2019-06-01T23:46:59.566Z,11.10
2019-06-01T23:49:29.243Z,11.20
2019-06-01T23:51:58.378Z,8.03
2019-06-01T23:54:27.858Z,11.00
2019-06-01T23:56:56.788Z,8.07
2019-06-01T23:59:27.942Z,11.63
